sensor_id;sensor_type;location;lat;lon;timestamp;P1;durP1;ratioP1;P2;durP2;ratioP2
12818;SDS011;6474;53.474;9.894;2024-02-21T00:02:21;1.53;;;1.47;;
12818;SDS011;6474;53.474;9.894;2024-02-21T00:04:49;1.30;;;1.20;;
12818;SDS011;6474;53.474;9.894;2024-02-21T00:07:17;1.83;;;1.73;;
12818;SDS011;6474;53.474;9.894;2024-02-21T00:09:45;2.40;;;2.23;;
12818;SDS011;6474;53.474;9.894;2024-02-21T00:12:13;3.03;;;1.60;;
12818;SDS011;6474;53.474;9.894;2024-02-21T00:14:41;11.57;;;4.10;;
12818;SDS011;6474;53.474;9.894;2024-02-21T00:17:11;2.63;;;2.43;;
12818;SDS011;6474;53.474;9.894;2024-02-21T00:19:39;2.17;;;2.03;;
12818;SDS011;6474;53.474;9.894;2024-02-21T00:22:07;3.33;;;2.87;;
12818;SDS011;6474;53.474;9.894;2024-02-21T00:24:35;1.93;;;1.87;;
12818;SDS011;6474;53.474;9.894;2024-02-21T00:27:04;1.33;;;1.33;;
12818;SDS011;6474;53.474;9.894;2024-02-21T00:29:32;2.90;;;2.70;;
12818;SDS011;6474;53.474;9.894;2024-02-21T00:32:00;3.10;;;2.20;;
12818;SDS011;6474;53.474;9.894;2024-02-21T00:34:29;4.30;;;2.97;;
12818;SDS011;6474;53.474;9.894;2024-02-21T00:36:57;1.73;;;1.63;;
12818;SDS011;6474;53.474;9.894;2024-02-21T00:39:25;1.50;;;1.50;;
12818;SDS011;6474;53.474;9.894;2024-02-21T00:41:53;2.00;;;1.90;;
12818;SDS011;6474;53.474;9.894;2024-02-21T00:44:21;1.80;;;1.70;;
12818;SDS011;6474;53.474;9.894;2024-02-21T00:46:49;8.73;;;2.70;;
12818;SDS011;6474;53.474;9.894;2024-02-21T00:49:17;1.23;;;1.10;;
12818;SDS011;6474;53.474;9.894;2024-02-21T00:51:46;10.20;;;3.00;;
12818;SDS011;6474;53.474;9.894;2024-02-21T00:54:15;3.93;;;3.13;;
12818;SDS011;6474;53.474;9.894;2024-02-21T00:56:43;2.73;;;2.17;;
12818;SDS011;6474;53.474;9.894;2024-02-21T00:59:10;2.63;;;1.83;;
12818;SDS011;6474;53.474;9.894;2024-02-21T01:01:38;2.43;;;2.23;;
12818;SDS011;6474;53.474;9.894;2024-02-21T01:04:08;2.03;;;1.87;;
12818;SDS011;6474;53.474;9.894;2024-02-21T01:06:36;2.67;;;2.53;;
12818;SDS011;6474;53.474;9.894;2024-02-21T01:09:06;1.27;;;1.27;;
12818;SDS011;6474;53.474;9.894;2024-02-21T01:11:34;1.70;;;1.60;;
12818;SDS011;6474;53.474;9.894;2024-02-21T01:14:02;4.70;;;2.90;;
12818;SDS011;6474;53.474;9.894;2024-02-21T01:16:30;2.70;;;2.50;;
12818;SDS011;6474;53.474;9.894;2024-02-21T01:18:58;3.20;;;2.93;;
12818;SDS011;6474;53.474;9.894;2024-02-21T01:21:26;4.53;;;2.73;;
12818;SDS011;6474;53.474;9.894;2024-02-21T01:23:54;4.17;;;2.33;;
12818;SDS011;6474;53.474;9.894;2024-02-21T01:26:23;2.97;;;2.63;;
12818;SDS011;6474;53.474;9.894;2024-02-21T01:28:51;2.70;;;2.50;;
12818;SDS011;6474;53.474;9.894;2024-02-21T01:31:19;2.63;;;2.43;;
12818;SDS011;6474;53.474;9.894;2024-02-21T01:33:47;3.90;;;3.60;;
12818;SDS011;6474;53.474;9.894;2024-02-21T01:36:15;2.83;;;2.57;;
12818;SDS011;6474;53.474;9.894;2024-02-21T01:38:43;2.03;;;1.93;;
12818;SDS011;6474;53.474;9.894;2024-02-21T01:41:11;3.37;;;3.10;;
12818;SDS011;6474;53.474;9.894;2024-02-21T01:43:40;3.77;;;3.17;;
12818;SDS011;6474;53.474;9.894;2024-02-21T01:46:08;3.03;;;2.43;;
12818;SDS011;6474;53.474;9.894;2024-02-21T01:48:36;7.13;;;2.30;;
12818;SDS011;6474;53.474;9.894;2024-02-21T01:51:04;2.20;;;2.03;;
12818;SDS011;6474;53.474;9.894;2024-02-21T01:53:33;2.20;;;1.97;;
12818;SDS011;6474;53.474;9.894;2024-02-21T01:56:04;8.30;;;2.50;;
12818;SDS011;6474;53.474;9.894;2024-02-21T01:58:33;4.23;;;3.40;;
12818;SDS011;6474;53.474;9.894;2024-02-21T02:01:05;3.07;;;2.83;;
12818;SDS011;6474;53.474;9.894;2024-02-21T02:03:33;2.77;;;2.53;;
12818;SDS011;6474;53.474;9.894;2024-02-21T02:06:02;2.77;;;2.53;;
12818;SDS011;6474;53.474;9.894;2024-02-21T02:08:32;1.90;;;1.80;;
12818;SDS011;6474;53.474;9.894;2024-02-21T02:11:00;4.10;;;3.00;;
12818;SDS011;6474;53.474;9.894;2024-02-21T02:13:28;4.87;;;2.47;;
12818;SDS011;6474;53.474;9.894;2024-02-21T02:15:56;2.63;;;2.33;;
12818;SDS011;6474;53.474;9.894;2024-02-21T02:18:25;3.97;;;3.60;;
12818;SDS011;6474;53.474;9.894;2024-02-21T02:20:54;3.93;;;3.20;;
12818;SDS011;6474;53.474;9.894;2024-02-21T02:23:24;3.73;;;3.47;;
12818;SDS011;6474;53.474;9.894;2024-02-21T02:25:53;2.80;;;1.57;;
12818;SDS011;6474;53.474;9.894;2024-02-21T02:28:21;3.53;;;2.40;;
12818;SDS011;6474;53.474;9.894;2024-02-21T02:30:49;2.60;;;2.40;;
12818;SDS011;6474;53.474;9.894;2024-02-21T02:33:17;4.00;;;2.60;;
12818;SDS011;6474;53.474;9.894;2024-02-21T02:35:46;2.47;;;2.23;;
12818;SDS011;6474;53.474;9.894;2024-02-21T02:38:14;4.00;;;3.43;;
12818;SDS011;6474;53.474;9.894;2024-02-21T02:40:43;2.47;;;2.33;;
12818;SDS011;6474;53.474;9.894;2024-02-21T02:43:11;2.67;;;2.40;;
12818;SDS011;6474;53.474;9.894;2024-02-21T02:45:39;4.47;;;4.07;;
12818;SDS011;6474;53.474;9.894;2024-02-21T02:48:07;5.53;;;3.73;;
12818;SDS011;6474;53.474;9.894;2024-02-21T02:50:35;3.80;;;2.43;;
12818;SDS011;6474;53.474;9.894;2024-02-21T02:53:03;2.67;;;2.47;;
12818;SDS011;6474;53.474;9.894;2024-02-21T02:55:31;6.10;;;3.80;;
12818;SDS011;6474;53.474;9.894;2024-02-21T02:58:00;3.60;;;3.30;;
12818;SDS011;6474;53.474;9.894;2024-02-21T03:00:30;3.50;;;2.23;;
12818;SDS011;6474;53.474;9.894;2024-02-21T03:03:02;11.77;;;3.00;;
12818;SDS011;6474;53.474;9.894;2024-02-21T03:05:30;4.97;;;2.80;;
12818;SDS011;6474;53.474;9.894;2024-02-21T03:07:58;2.97;;;2.77;;
12818;SDS011;6474;53.474;9.894;2024-02-21T03:10:26;2.90;;;2.50;;
12818;SDS011;6474;53.474;9.894;2024-02-21T03:12:54;2.17;;;2.00;;
12818;SDS011;6474;53.474;9.894;2024-02-21T03:15:23;3.53;;;2.57;;
12818;SDS011;6474;53.474;9.894;2024-02-21T03:17:51;2.07;;;1.97;;
12818;SDS011;6474;53.474;9.894;2024-02-21T03:20:19;2.50;;;2.17;;
12818;SDS011;6474;53.474;9.894;2024-02-21T03:22:47;3.23;;;2.80;;
12818;SDS011;6474;53.474;9.894;2024-02-21T03:25:15;4.57;;;2.87;;
12818;SDS011;6474;53.474;9.894;2024-02-21T03:27:42;3.57;;;3.27;;
12818;SDS011;6474;53.474;9.894;2024-02-21T03:30:11;5.10;;;2.70;;
12818;SDS011;6474;53.474;9.894;2024-02-21T03:32:41;3.73;;;2.83;;
12818;SDS011;6474;53.474;9.894;2024-02-21T03:35:08;3.03;;;2.67;;
12818;SDS011;6474;53.474;9.894;2024-02-21T03:37:36;5.37;;;1.30;;
12818;SDS011;6474;53.474;9.894;2024-02-21T03:40:06;3.03;;;2.80;;
12818;SDS011;6474;53.474;9.894;2024-02-21T03:42:36;4.47;;;2.97;;
12818;SDS011;6474;53.474;9.894;2024-02-21T03:45:04;3.13;;;2.47;;
12818;SDS011;6474;53.474;9.894;2024-02-21T03:47:33;2.83;;;2.53;;
12818;SDS011;6474;53.474;9.894;2024-02-21T03:50:03;2.47;;;2.30;;
12818;SDS011;6474;53.474;9.894;2024-02-21T03:52:31;2.03;;;1.90;;
12818;SDS011;6474;53.474;9.894;2024-02-21T03:54:59;2.60;;;2.17;;
12818;SDS011;6474;53.474;9.894;2024-02-21T03:57:27;10.73;;;2.67;;
12818;SDS011;6474;53.474;9.894;2024-02-21T03:59:55;3.20;;;2.93;;
12818;SDS011;6474;53.474;9.894;2024-02-21T04:02:24;4.97;;;1.67;;
12818;SDS011;6474;53.474;9.894;2024-02-21T04:04:52;1.60;;;1.60;;
12818;SDS011;6474;53.474;9.894;2024-02-21T04:07:21;4.40;;;2.40;;
12818;SDS011;6474;53.474;9.894;2024-02-21T04:09:49;2.60;;;2.50;;
12818;SDS011;6474;53.474;9.894;2024-02-21T04:12:17;8.93;;;2.63;;
12818;SDS011;6474;53.474;9.894;2024-02-21T04:14:45;5.23;;;2.40;;
12818;SDS011;6474;53.474;9.894;2024-02-21T04:17:13;2.63;;;1.80;;
12818;SDS011;6474;53.474;9.894;2024-02-21T04:19:41;3.00;;;2.80;;
12818;SDS011;6474;53.474;9.894;2024-02-21T04:22:09;6.10;;;1.90;;
12818;SDS011;6474;53.474;9.894;2024-02-21T04:24:38;6.60;;;3.40;;
12818;SDS011;6474;53.474;9.894;2024-02-21T04:27:06;3.83;;;2.03;;
12818;SDS011;6474;53.474;9.894;2024-02-21T04:29:34;4.07;;;2.10;;
12818;SDS011;6474;53.474;9.894;2024-02-21T04:32:02;11.17;;;3.47;;
12818;SDS011;6474;53.474;9.894;2024-02-21T04:34:31;8.60;;;2.73;;
12818;SDS011;6474;53.474;9.894;2024-02-21T04:36:59;2.90;;;2.30;;
12818;SDS011;6474;53.474;9.894;2024-02-21T04:39:27;2.80;;;2.00;;
12818;SDS011;6474;53.474;9.894;2024-02-21T04:41:56;2.43;;;2.30;;
12818;SDS011;6474;53.474;9.894;2024-02-21T04:44:24;18.80;;;4.77;;
12818;SDS011;6474;53.474;9.894;2024-02-21T04:46:52;1.17;;;1.00;;
12818;SDS011;6474;53.474;9.894;2024-02-21T04:49:20;1.73;;;1.63;;
12818;SDS011;6474;53.474;9.894;2024-02-21T04:51:48;5.07;;;3.03;;
12818;SDS011;6474;53.474;9.894;2024-02-21T04:54:16;4.20;;;2.67;;
12818;SDS011;6474;53.474;9.894;2024-02-21T04:56:44;3.23;;;2.60;;
12818;SDS011;6474;53.474;9.894;2024-02-21T04:59:13;1.93;;;1.83;;
12818;SDS011;6474;53.474;9.894;2024-02-21T05:01:41;1.90;;;1.80;;
12818;SDS011;6474;53.474;9.894;2024-02-21T05:04:09;1.53;;;1.43;;
12818;SDS011;6474;53.474;9.894;2024-02-21T05:06:37;1.00;;;1.00;;
12818;SDS011;6474;53.474;9.894;2024-02-21T05:09:06;2.00;;;1.90;;
12818;SDS011;6474;53.474;9.894;2024-02-21T05:11:34;2.53;;;2.00;;
12818;SDS011;6474;53.474;9.894;2024-02-21T05:14:02;3.70;;;2.80;;
12818;SDS011;6474;53.474;9.894;2024-02-21T05:16:32;3.33;;;1.90;;
12818;SDS011;6474;53.474;9.894;2024-02-21T05:19:00;1.43;;;1.40;;
12818;SDS011;6474;53.474;9.894;2024-02-21T05:21:30;4.10;;;1.70;;
12818;SDS011;6474;53.474;9.894;2024-02-21T05:23:58;2.40;;;1.90;;
12818;SDS011;6474;53.474;9.894;2024-02-21T05:26:27;2.17;;;1.97;;
12818;SDS011;6474;53.474;9.894;2024-02-21T05:28:55;2.73;;;1.73;;
12818;SDS011;6474;53.474;9.894;2024-02-21T05:31:23;2.23;;;2.03;;
12818;SDS011;6474;53.474;9.894;2024-02-21T05:33:52;2.87;;;2.57;;
12818;SDS011;6474;53.474;9.894;2024-02-21T05:36:20;2.57;;;2.47;;
12818;SDS011;6474;53.474;9.894;2024-02-21T05:38:48;2.17;;;1.30;;
12818;SDS011;6474;53.474;9.894;2024-02-21T05:41:16;1.53;;;1.33;;
12818;SDS011;6474;53.474;9.894;2024-02-21T05:43:44;1.63;;;1.53;;
12818;SDS011;6474;53.474;9.894;2024-02-21T05:46:12;1.00;;;1.00;;
12818;SDS011;6474;53.474;9.894;2024-02-21T05:48:40;1.20;;;1.20;;
12818;SDS011;6474;53.474;9.894;2024-02-21T05:51:09;3.00;;;2.80;;
12818;SDS011;6474;53.474;9.894;2024-02-21T05:53:37;2.97;;;1.80;;
12818;SDS011;6474;53.474;9.894;2024-02-21T05:56:09;1.30;;;1.30;;
12818;SDS011;6474;53.474;9.894;2024-02-21T05:58:38;1.63;;;1.53;;
12818;SDS011;6474;53.474;9.894;2024-02-21T06:01:06;1.10;;;1.10;;
12818;SDS011;6474;53.474;9.894;2024-02-21T06:03:34;1.60;;;1.50;;
12818;SDS011;6474;53.474;9.894;2024-02-21T06:06:03;1.10;;;0.87;;
12818;SDS011;6474;53.474;9.894;2024-02-21T06:08:33;1.97;;;1.30;;
12818;SDS011;6474;53.474;9.894;2024-02-21T06:11:01;1.27;;;1.20;;
12818;SDS011;6474;53.474;9.894;2024-02-21T06:13:29;0.83;;;0.83;;
12818;SDS011;6474;53.474;9.894;2024-02-21T06:15:57;0.93;;;0.80;;
12818;SDS011;6474;53.474;9.894;2024-02-21T06:18:25;1.30;;;1.30;;
12818;SDS011;6474;53.474;9.894;2024-02-21T06:20:53;1.40;;;1.40;;
12818;SDS011;6474;53.474;9.894;2024-02-21T06:23:21;1.70;;;0.70;;
12818;SDS011;6474;53.474;9.894;2024-02-21T06:25:50;0.73;;;0.73;;
12818;SDS011;6474;53.474;9.894;2024-02-21T06:28:18;1.07;;;1.07;;
12818;SDS011;6474;53.474;9.894;2024-02-21T06:30:46;1.00;;;1.00;;
12818;SDS011;6474;53.474;9.894;2024-02-21T06:33:14;1.10;;;1.00;;
12818;SDS011;6474;53.474;9.894;2024-02-21T06:35:42;0.50;;;0.50;;
12818;SDS011;6474;53.474;9.894;2024-02-21T06:38:13;1.00;;;0.90;;
12818;SDS011;6474;53.474;9.894;2024-02-21T06:40:43;1.00;;;1.00;;
12818;SDS011;6474;53.474;9.894;2024-02-21T06:43:18;1.30;;;1.30;;
12818;SDS011;6474;53.474;9.894;2024-02-21T06:45:47;1.30;;;1.20;;
12818;SDS011;6474;53.474;9.894;2024-02-21T06:48:17;2.20;;;1.57;;
12818;SDS011;6474;53.474;9.894;2024-02-21T06:50:46;0.97;;;0.93;;
12818;SDS011;6474;53.474;9.894;2024-02-21T06:53:14;1.30;;;1.30;;
12818;SDS011;6474;53.474;9.894;2024-02-21T06:55:42;1.00;;;1.00;;
12818;SDS011;6474;53.474;9.894;2024-02-21T06:58:10;1.50;;;1.50;;
12818;SDS011;6474;53.474;9.894;2024-02-21T07:00:42;2.47;;;2.27;;
12818;SDS011;6474;53.474;9.894;2024-02-21T07:03:10;0.80;;;0.80;;
12818;SDS011;6474;53.474;9.894;2024-02-21T07:05:37;1.90;;;1.17;;
12818;SDS011;6474;53.474;9.894;2024-02-21T07:08:06;2.17;;;1.40;;
12818;SDS011;6474;53.474;9.894;2024-02-21T07:10:34;1.60;;;1.33;;
12818;SDS011;6474;53.474;9.894;2024-02-21T07:13:02;1.13;;;1.10;;
12818;SDS011;6474;53.474;9.894;2024-02-21T07:15:30;0.67;;;0.67;;
12818;SDS011;6474;53.474;9.894;2024-02-21T07:18:00;1.33;;;1.33;;
12818;SDS011;6474;53.474;9.894;2024-02-21T07:20:28;0.63;;;0.63;;
12818;SDS011;6474;53.474;9.894;2024-02-21T07:22:56;1.57;;;1.43;;
12818;SDS011;6474;53.474;9.894;2024-02-21T07:25:24;2.13;;;1.30;;
12818;SDS011;6474;53.474;9.894;2024-02-21T07:27:52;1.87;;;0.97;;
12818;SDS011;6474;53.474;9.894;2024-02-21T07:30:20;1.10;;;1.10;;
12818;SDS011;6474;53.474;9.894;2024-02-21T07:32:48;1.33;;;1.27;;
12818;SDS011;6474;53.474;9.894;2024-02-21T07:35:18;1.27;;;1.10;;
12818;SDS011;6474;53.474;9.894;2024-02-21T07:37:46;1.30;;;1.20;;
12818;SDS011;6474;53.474;9.894;2024-02-21T07:40:14;1.10;;;1.00;;
12818;SDS011;6474;53.474;9.894;2024-02-21T07:42:43;0.90;;;0.90;;
12818;SDS011;6474;53.474;9.894;2024-02-21T07:45:16;1.27;;;0.83;;
12818;SDS011;6474;53.474;9.894;2024-02-21T07:47:48;0.97;;;0.97;;
12818;SDS011;6474;53.474;9.894;2024-02-21T07:50:18;0.90;;;0.90;;
12818;SDS011;6474;53.474;9.894;2024-02-21T07:52:46;0.70;;;0.70;;
12818;SDS011;6474;53.474;9.894;2024-02-21T07:55:13;1.03;;;1.03;;
12818;SDS011;6474;53.474;9.894;2024-02-21T07:57:41;0.70;;;0.70;;
12818;SDS011;6474;53.474;9.894;2024-02-21T08:00:09;0.80;;;0.80;;
12818;SDS011;6474;53.474;9.894;2024-02-21T08:02:43;1.00;;;0.80;;
12818;SDS011;6474;53.474;9.894;2024-02-21T08:05:11;0.50;;;0.50;;
12818;SDS011;6474;53.474;9.894;2024-02-21T08:07:40;0.67;;;0.67;;
12818;SDS011;6474;53.474;9.894;2024-02-21T08:10:09;0.53;;;0.40;;
12818;SDS011;6474;53.474;9.894;2024-02-21T08:12:37;1.17;;;1.07;;
12818;SDS011;6474;53.474;9.894;2024-02-21T08:15:05;1.10;;;0.70;;
12818;SDS011;6474;53.474;9.894;2024-02-21T08:17:34;1.27;;;0.43;;
12818;SDS011;6474;53.474;9.894;2024-02-21T08:20:02;0.83;;;0.83;;
12818;SDS011;6474;53.474;9.894;2024-02-21T08:22:31;1.30;;;1.20;;
12818;SDS011;6474;53.474;9.894;2024-02-21T08:25:00;0.53;;;0.53;;
12818;SDS011;6474;53.474;9.894;2024-02-21T08:27:31;0.50;;;0.50;;
12818;SDS011;6474;53.474;9.894;2024-02-21T08:30:00;0.50;;;0.50;;
12818;SDS011;6474;53.474;9.894;2024-02-21T08:32:30;1.10;;;1.10;;
12818;SDS011;6474;53.474;9.894;2024-02-21T08:34:58;0.30;;;0.30;;
12818;SDS011;6474;53.474;9.894;2024-02-21T08:37:26;1.00;;;1.00;;
12818;SDS011;6474;53.474;9.894;2024-02-21T08:39:54;0.80;;;0.80;;
12818;SDS011;6474;53.474;9.894;2024-02-21T08:42:24;0.80;;;0.80;;
12818;SDS011;6474;53.474;9.894;2024-02-21T08:44:51;0.67;;;0.67;;
12818;SDS011;6474;53.474;9.894;2024-02-21T08:47:19;1.00;;;0.90;;
12818;SDS011;6474;53.474;9.894;2024-02-21T08:49:47;0.70;;;0.70;;
12818;SDS011;6474;53.474;9.894;2024-02-21T08:52:15;0.60;;;0.60;;
12818;SDS011;6474;53.474;9.894;2024-02-21T08:54:43;0.97;;;0.97;;
12818;SDS011;6474;53.474;9.894;2024-02-21T08:57:11;1.43;;;1.23;;
12818;SDS011;6474;53.474;9.894;2024-02-21T08:59:41;0.83;;;0.83;;
12818;SDS011;6474;53.474;9.894;2024-02-21T09:02:09;0.73;;;0.73;;
12818;SDS011;6474;53.474;9.894;2024-02-21T09:04:37;0.90;;;0.90;;
12818;SDS011;6474;53.474;9.894;2024-02-21T09:07:05;1.77;;;1.17;;
12818;SDS011;6474;53.474;9.894;2024-02-21T09:09:33;0.90;;;0.90;;
12818;SDS011;6474;53.474;9.894;2024-02-21T09:12:00;0.70;;;0.70;;
12818;SDS011;6474;53.474;9.894;2024-02-21T09:14:32;0.17;;;0.17;;
12818;SDS011;6474;53.474;9.894;2024-02-21T09:17:01;0.60;;;0.60;;
12818;SDS011;6474;53.474;9.894;2024-02-21T09:19:29;0.43;;;0.43;;
12818;SDS011;6474;53.474;9.894;2024-02-21T09:21:57;0.60;;;0.60;;
12818;SDS011;6474;53.474;9.894;2024-02-21T09:24:25;0.40;;;0.40;;
12818;SDS011;6474;53.474;9.894;2024-02-21T09:26:53;0.67;;;0.67;;
12818;SDS011;6474;53.474;9.894;2024-02-21T09:29:22;0.70;;;0.70;;
12818;SDS011;6474;53.474;9.894;2024-02-21T09:31:53;0.40;;;0.40;;
12818;SDS011;6474;53.474;9.894;2024-02-21T09:34:22;0.40;;;0.40;;
12818;SDS011;6474;53.474;9.894;2024-02-21T09:36:50;1.03;;;0.60;;
12818;SDS011;6474;53.474;9.894;2024-02-21T09:39:18;0.63;;;0.63;;
12818;SDS011;6474;53.474;9.894;2024-02-21T09:41:47;1.37;;;1.37;;
12818;SDS011;6474;53.474;9.894;2024-02-21T09:44:21;0.83;;;0.83;;
12818;SDS011;6474;53.474;9.894;2024-02-21T09:46:51;2.27;;;0.80;;
12818;SDS011;6474;53.474;9.894;2024-02-21T09:49:29;1.53;;;1.37;;
12818;SDS011;6474;53.474;9.894;2024-02-21T09:52:01;1.17;;;1.03;;
12818;SDS011;6474;53.474;9.894;2024-02-21T09:54:30;0.70;;;0.70;;
12818;SDS011;6474;53.474;9.894;2024-02-21T09:56:59;1.70;;;0.70;;
12818;SDS011;6474;53.474;9.894;2024-02-21T09:59:28;0.90;;;0.83;;
12818;SDS011;6474;53.474;9.894;2024-02-21T10:01:57;0.90;;;0.90;;
12818;SDS011;6474;53.474;9.894;2024-02-21T10:04:28;1.77;;;1.63;;
12818;SDS011;6474;53.474;9.894;2024-02-21T10:06:58;2.37;;;2.27;;
12818;SDS011;6474;53.474;9.894;2024-02-21T10:09:26;2.17;;;1.83;;
12818;SDS011;6474;53.474;9.894;2024-02-21T10:11:56;1.73;;;1.70;;
12818;SDS011;6474;53.474;9.894;2024-02-21T10:14:34;1.43;;;1.40;;
12818;SDS011;6474;53.474;9.894;2024-02-21T10:17:02;2.97;;;2.20;;
12818;SDS011;6474;53.474;9.894;2024-02-21T10:19:36;2.93;;;1.37;;
12818;SDS011;6474;53.474;9.894;2024-02-21T10:22:06;2.90;;;2.27;;
12818;SDS011;6474;53.474;9.894;2024-02-21T10:24:36;1.47;;;1.43;;
12818;SDS011;6474;53.474;9.894;2024-02-21T10:27:07;1.50;;;1.30;;
12818;SDS011;6474;53.474;9.894;2024-02-21T10:29:38;1.73;;;1.63;;
12818;SDS011;6474;53.474;9.894;2024-02-21T10:32:07;2.37;;;2.17;;
12818;SDS011;6474;53.474;9.894;2024-02-21T10:34:39;8.50;;;2.87;;
12818;SDS011;6474;53.474;9.894;2024-02-21T10:37:09;2.00;;;1.90;;
12818;SDS011;6474;53.474;9.894;2024-02-21T10:39:38;1.67;;;1.57;;
12818;SDS011;6474;53.474;9.894;2024-02-21T10:42:10;1.70;;;1.57;;
12818;SDS011;6474;53.474;9.894;2024-02-21T10:44:39;2.10;;;2.07;;
12818;SDS011;6474;53.474;9.894;2024-02-21T10:47:09;2.50;;;1.80;;
12818;SDS011;6474;53.474;9.894;2024-02-21T10:49:41;2.47;;;1.23;;
12818;SDS011;6474;53.474;9.894;2024-02-21T10:52:14;1.60;;;1.50;;
12818;SDS011;6474;53.474;9.894;2024-02-21T10:54:53;2.63;;;2.43;;
12818;SDS011;6474;53.474;9.894;2024-02-21T10:57:23;2.27;;;1.80;;
12818;SDS011;6474;53.474;9.894;2024-02-21T10:59:55;6.07;;;1.00;;
12818;SDS011;6474;53.474;9.894;2024-02-21T11:02:25;1.50;;;1.40;;
12818;SDS011;6474;53.474;9.894;2024-02-21T11:04:58;1.27;;;1.23;;
12818;SDS011;6474;53.474;9.894;2024-02-21T11:07:27;1.67;;;1.60;;
12818;SDS011;6474;53.474;9.894;2024-02-21T11:09:55;3.40;;;1.07;;
12818;SDS011;6474;53.474;9.894;2024-02-21T11:12:23;1.07;;;1.07;;
12818;SDS011;6474;53.474;9.894;2024-02-21T11:15:03;2.80;;;0.90;;
12818;SDS011;6474;53.474;9.894;2024-02-21T11:17:32;2.03;;;1.43;;
12818;SDS011;6474;53.474;9.894;2024-02-21T11:20:13;0.83;;;0.83;;
12818;SDS011;6474;53.474;9.894;2024-02-21T11:22:42;1.70;;;1.60;;
12818;SDS011;6474;53.474;9.894;2024-02-21T11:25:10;1.80;;;1.20;;
12818;SDS011;6474;53.474;9.894;2024-02-21T11:27:38;1.53;;;1.43;;
12818;SDS011;6474;53.474;9.894;2024-02-21T11:30:12;0.70;;;0.70;;
12818;SDS011;6474;53.474;9.894;2024-02-21T11:32:42;0.90;;;0.90;;
12818;SDS011;6474;53.474;9.894;2024-02-21T11:35:18;1.50;;;1.47;;
12818;SDS011;6474;53.474;9.894;2024-02-21T11:37:47;1.13;;;0.70;;
12818;SDS011;6474;53.474;9.894;2024-02-21T11:40:15;2.03;;;1.23;;
12818;SDS011;6474;53.474;9.894;2024-02-21T11:42:43;1.53;;;1.10;;
12818;SDS011;6474;53.474;9.894;2024-02-21T11:45:11;1.43;;;1.33;;
12818;SDS011;6474;53.474;9.894;2024-02-21T11:47:42;1.67;;;1.20;;
12818;SDS011;6474;53.474;9.894;2024-02-21T11:50:10;25.70;;;3.53;;
12818;SDS011;6474;53.474;9.894;2024-02-21T11:52:42;1.53;;;1.50;;
12818;SDS011;6474;53.474;9.894;2024-02-21T11:55:10;4.07;;;1.53;;
12818;SDS011;6474;53.474;9.894;2024-02-21T11:57:38;2.83;;;1.40;;
12818;SDS011;6474;53.474;9.894;2024-02-21T12:00:13;0.70;;;0.70;;
12818;SDS011;6474;53.474;9.894;2024-02-21T12:02:42;1.90;;;1.63;;
12818;SDS011;6474;53.474;9.894;2024-02-21T12:05:10;2.63;;;2.20;;
12818;SDS011;6474;53.474;9.894;2024-02-21T12:07:38;3.07;;;1.57;;
12818;SDS011;6474;53.474;9.894;2024-02-21T12:10:09;1.20;;;1.20;;
12818;SDS011;6474;53.474;9.894;2024-02-21T12:12:37;2.03;;;1.93;;
12818;SDS011;6474;53.474;9.894;2024-02-21T12:15:06;0.90;;;0.90;;
12818;SDS011;6474;53.474;9.894;2024-02-21T12:17:35;1.93;;;1.83;;
12818;SDS011;6474;53.474;9.894;2024-02-21T12:20:03;1.80;;;1.70;;
12818;SDS011;6474;53.474;9.894;2024-02-21T12:22:36;0.90;;;0.90;;
12818;SDS011;6474;53.474;9.894;2024-02-21T12:25:04;1.70;;;1.00;;
12818;SDS011;6474;53.474;9.894;2024-02-21T12:27:44;2.03;;;1.93;;
12818;SDS011;6474;53.474;9.894;2024-02-21T12:30:12;1.60;;;1.50;;
12818;SDS011;6474;53.474;9.894;2024-02-21T12:32:40;1.80;;;1.70;;
12818;SDS011;6474;53.474;9.894;2024-02-21T12:35:08;1.77;;;1.77;;
12818;SDS011;6474;53.474;9.894;2024-02-21T12:37:36;2.17;;;2.07;;
12818;SDS011;6474;53.474;9.894;2024-02-21T12:40:06;1.67;;;1.57;;
12818;SDS011;6474;53.474;9.894;2024-02-21T12:42:38;1.37;;;1.33;;
12818;SDS011;6474;53.474;9.894;2024-02-21T12:45:06;1.30;;;1.30;;
12818;SDS011;6474;53.474;9.894;2024-02-21T12:47:35;1.07;;;1.07;;
12818;SDS011;6474;53.474;9.894;2024-02-21T12:50:03;1.43;;;1.33;;
12818;SDS011;6474;53.474;9.894;2024-02-21T12:52:34;2.07;;;1.97;;
12818;SDS011;6474;53.474;9.894;2024-02-21T12:55:02;1.57;;;1.50;;
12818;SDS011;6474;53.474;9.894;2024-02-21T12:57:30;2.27;;;2.07;;
12818;SDS011;6474;53.474;9.894;2024-02-21T13:00:00;1.67;;;1.57;;
12818;SDS011;6474;53.474;9.894;2024-02-21T13:02:27;1.43;;;1.43;;
12818;SDS011;6474;53.474;9.894;2024-02-21T13:04:55;8.33;;;2.37;;
12818;SDS011;6474;53.474;9.894;2024-02-21T13:07:23;1.60;;;1.50;;
12818;SDS011;6474;53.474;9.894;2024-02-21T13:09:51;1.63;;;1.53;;
12818;SDS011;6474;53.474;9.894;2024-02-21T13:12:20;2.67;;;1.87;;
12818;SDS011;6474;53.474;9.894;2024-02-21T13:14:48;2.33;;;1.50;;
12818;SDS011;6474;53.474;9.894;2024-02-21T13:17:17;1.90;;;1.80;;
12818;SDS011;6474;53.474;9.894;2024-02-21T13:19:46;1.73;;;1.63;;
12818;SDS011;6474;53.474;9.894;2024-02-21T13:22:14;1.70;;;1.60;;
12818;SDS011;6474;53.474;9.894;2024-02-21T13:24:41;1.00;;;1.00;;
12818;SDS011;6474;53.474;9.894;2024-02-21T13:27:09;1.33;;;1.33;;
12818;SDS011;6474;53.474;9.894;2024-02-21T13:29:39;3.40;;;1.67;;
12818;SDS011;6474;53.474;9.894;2024-02-21T13:32:06;4.60;;;2.20;;
12818;SDS011;6474;53.474;9.894;2024-02-21T13:34:36;6.10;;;2.00;;
12818;SDS011;6474;53.474;9.894;2024-02-21T13:37:04;4.73;;;1.60;;
12818;SDS011;6474;53.474;9.894;2024-02-21T13:39:33;7.40;;;1.60;;
12818;SDS011;6474;53.474;9.894;2024-02-21T13:42:01;2.97;;;1.20;;
12818;SDS011;6474;53.474;9.894;2024-02-21T13:44:31;7.30;;;1.20;;
12818;SDS011;6474;53.474;9.894;2024-02-21T13:47:00;3.60;;;1.00;;
12818;SDS011;6474;53.474;9.894;2024-02-21T13:49:28;1.27;;;1.20;;
12818;SDS011;6474;53.474;9.894;2024-02-21T13:51:58;1.93;;;1.83;;
12818;SDS011;6474;53.474;9.894;2024-02-21T13:54:28;1.13;;;1.13;;
12818;SDS011;6474;53.474;9.894;2024-02-21T13:56:55;1.33;;;1.17;;
12818;SDS011;6474;53.474;9.894;2024-02-21T13:59:23;1.43;;;1.43;;
12818;SDS011;6474;53.474;9.894;2024-02-21T14:01:52;1.27;;;1.27;;
12818;SDS011;6474;53.474;9.894;2024-02-21T14:04:20;1.00;;;1.00;;
12818;SDS011;6474;53.474;9.894;2024-02-21T14:06:49;1.70;;;1.60;;
12818;SDS011;6474;53.474;9.894;2024-02-21T14:09:18;5.43;;;1.00;;
12818;SDS011;6474;53.474;9.894;2024-02-21T14:11:46;0.93;;;0.90;;
12818;SDS011;6474;53.474;9.894;2024-02-21T14:14:14;3.07;;;2.00;;
12818;SDS011;6474;53.474;9.894;2024-02-21T14:16:42;6.97;;;1.63;;
12818;SDS011;6474;53.474;9.894;2024-02-21T14:19:10;1.20;;;1.20;;
12818;SDS011;6474;53.474;9.894;2024-02-21T14:21:38;3.23;;;1.40;;
12818;SDS011;6474;53.474;9.894;2024-02-21T14:24:06;1.60;;;1.07;;
12818;SDS011;6474;53.474;9.894;2024-02-21T14:26:35;1.07;;;1.03;;
12818;SDS011;6474;53.474;9.894;2024-02-21T14:29:04;1.57;;;1.53;;
12818;SDS011;6474;53.474;9.894;2024-02-21T14:31:31;0.83;;;0.83;;
12818;SDS011;6474;53.474;9.894;2024-02-21T14:33:59;1.00;;;1.00;;
12818;SDS011;6474;53.474;9.894;2024-02-21T14:36:29;0.87;;;0.87;;
12818;SDS011;6474;53.474;9.894;2024-02-21T14:38:56;1.47;;;1.37;;
12818;SDS011;6474;53.474;9.894;2024-02-21T14:41:25;0.80;;;0.80;;
12818;SDS011;6474;53.474;9.894;2024-02-21T14:43:55;1.23;;;1.10;;
12818;SDS011;6474;53.474;9.894;2024-02-21T14:46:29;0.93;;;0.93;;
12818;SDS011;6474;53.474;9.894;2024-02-21T14:48:57;1.13;;;1.10;;
12818;SDS011;6474;53.474;9.894;2024-02-21T14:51:27;1.10;;;1.10;;
12818;SDS011;6474;53.474;9.894;2024-02-21T14:53:56;1.13;;;1.13;;
12818;SDS011;6474;53.474;9.894;2024-02-21T14:56:24;0.70;;;0.70;;
12818;SDS011;6474;53.474;9.894;2024-02-21T14:58:52;0.90;;;0.90;;
12818;SDS011;6474;53.474;9.894;2024-02-21T15:01:25;3.17;;;1.00;;
12818;SDS011;6474;53.474;9.894;2024-02-21T15:03:53;1.23;;;1.00;;
12818;SDS011;6474;53.474;9.894;2024-02-21T15:06:21;0.90;;;0.90;;
12818;SDS011;6474;53.474;9.894;2024-02-21T15:08:50;1.30;;;1.30;;
12818;SDS011;6474;53.474;9.894;2024-02-21T15:11:18;2.37;;;2.17;;